x

Sand Key, Fl (sanf1) Weather Station

12:50am - Mon 1st May 2017 All times are CDT. -4 hours from GMT.

  • Wind
    25mph, 30mph gusts
  • Air Temp 79°f
  • Sea Pressure 1017.6mb
  • Sand Key, Fl
  • Sand Key, Fl

More Historic Weather Station data

Upgrade to MSW Pro to gain access to the past 30 days of data for over 8000 Wavebouys and Weather Stations around the globe.

Join Pro

Comparision Forecast

View Surf forecast
   
Mon 05/01 12:50am 25 30 mph 1017.6mb 79f
Sun 04/30 11:50pm 24 28 mph 1017.8mb 80f
10:50pm 25 30 mph 1018.3mb 80f
9:50pm 25 31 mph 1017.9mb 80f
8:50pm 28 32 mph 1016.8mb 79f
7:50pm 28 31 mph 1016.1mb 79f
6:50pm 26 30 mph 1015.9mb 79f
5:50pm 24 28 mph 1015.8mb 79f
4:50pm 22 26 mph 1016.5mb 80f
3:50pm 23 28 mph 1017.1mb 80f
2:50pm 22 26 mph 1017.4mb 80f
1:50pm 22 24 mph 1017.4mb 80f
12:50pm 24 28 mph 1017.7mb 80f
11:50am 24 28 mph 1018.1mb 79f
10:50am 23 28 mph 1018.2mb 79f
8:50am 23 28 mph 1018.2mb 80f
7:50am 24 28 mph 1017.8mb 79f
6:50am 25 31 mph 1017.3mb 79f
5:50am 21 24 mph 1017.1mb 79f
4:50am 23 28 mph 1016.8mb 79f
3:50am 22 25 mph 1017.2mb 79f
2:50am 24 29 mph 1017.2mb 79f
1:50am 26 31 mph 1017.7mb 79f
12:50am 26 30 mph 1017.8mb 79f
Sat 04/29 11:50pm 26 30 mph 1017.9mb 79f
10:50pm 28 32 mph 1017.7mb 79f
8:50pm 29 33 mph 1016.9mb 79f
7:50pm 28 31 mph 1016.5mb 79f
6:50pm 26 30 mph 1016.7mb 79f
5:50pm 26 31 mph 1016.7mb 79f
4:50pm 26 31 mph 1016.9mb 79f
3:50pm 25 29 mph 1017.5mb 79f
2:50pm 22 24 mph 1018.2mb 79f
1:50pm 22 26 mph 1018.6mb 79f
12:50pm 21 23 mph 1019mb 80f
11:50am 20 22 mph 1019.4mb 79f
10:50am 21 24 mph 1019.5mb 79f
9:50am 20 23 mph 1019.7mb 80f
8:50am 20 24 mph 1018.9mb 79f
7:50am 22 25 mph 1018.6mb 79f
6:50am 21 25 mph 1017.8mb 79f
5:50am 21 23 mph 1017.3mb 79f
4:50am 21 24 mph 1017mb 79f
3:50am 24 29 mph 1016.7mb 79f
2:50am 22 24 mph 1017.2mb 79f
1:50am 24 28 mph 1017.8mb 79f
12:50am 24 29 mph 1017.8mb 79f
Fri 04/28 11:50pm 24 28 mph 1018mb 79f
10:50pm 22 25 mph 1018mb 79f
8:50pm 24 28 mph 1017.4mb 79f
7:50pm 25 29 mph 1016.6mb 79f
6:50pm 24 28 mph 1016.4mb 79f
5:50pm 23 28 mph 1015.9mb 79f
4:50pm 23 26 mph 1016.2mb 79f
3:50pm 20 23 mph 1016.8mb 79f
2:50pm 18 22 mph 1017.4mb 79f
1:50pm 16 18 mph 1017.8mb 79f
12:50pm 14 32 mph 1018mb 79f
11:50am 16 18 mph 1018.1mb 79f
10:50am 11 14 mph 1018mb 79f
9:50am 8 10 mph 1017.6mb 79f
8:50am 7 8 mph 1017mb 79f
7:50am 10 13 mph 1016.6mb 78f
6:50am 14 15 mph 1015.6mb 78f
5:50am 11 13 mph 1014.9mb 79f
4:50am 9 10 mph 1014.3mb 79f
3:50am 10 11 mph 1014.2mb 79f
2:50am 11 13 mph 1014.1mb 79f
1:50am 14 16 mph 1014.8mb 79f
12:50am 14 15 mph 1015mb 79f
Thu 04/27 11:50pm 14 16 mph 1015.2mb 79f
10:50pm 18 22 mph 1014.8mb 79f
9:50pm 17 21 mph 1014.1mb 79f
8:50pm 16 20 mph 1013.7mb 79f
7:50pm 18 21 mph 1013.4mb 79f
6:50pm 16 18 mph 1012.9mb 80f
5:50pm 15 16 mph 1012.7mb 79f
4:50pm 13 15 mph 1013.1mb 79f
3:50pm 8 9 mph 1013.8mb 79f
2:50pm 9 11 mph 1014.6mb 79f
1:50pm 29
mph
1015mb 79f
12:50pm 9 15 mph 1015.2mb 79f
11:50am  -  mph 1015.2mb 79f
10:50am 7 9 mph 1014.9mb 79f
9:50am 6 7 mph 1014.3mb 79f
8:50am 9 10 mph 1013.8mb 78f
7:50am 9 10 mph 1013.2mb 78f
6:50am 10 13 mph 1012.2mb 78f